createdAt,value
2022-10-30T00:00:47.058Z,6.10
2022-10-30T00:03:15.568Z,6.20
2022-10-30T00:05:47.958Z,7.32
2022-10-30T00:08:17.931Z,5.95
2022-10-30T00:10:46.314Z,6.82
2022-10-30T00:13:14.365Z,5.93
2022-10-30T00:15:47.944Z,6.32
2022-10-30T00:18:15.271Z,6.80
2022-10-30T00:20:42.169Z,6.60
2022-10-30T00:23:09.309Z,6.15
2022-10-30T00:25:36.935Z,5.32
2022-10-30T00:28:05.705Z,5.82
2022-10-30T00:30:33.778Z,6.25
2022-10-30T00:33:01.230Z,6.35
2022-10-30T00:35:28.620Z,6.70
2022-10-30T00:37:56.879Z,5.65
2022-10-30T00:40:24.394Z,6.35
2022-10-30T00:42:52.129Z,6.35
2022-10-30T00:45:19.803Z,6.55
2022-10-30T00:48:01.882Z,6.20
2022-10-30T00:50:36.768Z,5.82
2022-10-30T00:53:15.837Z,6.00
2022-10-30T00:55:56.127Z,5.93
2022-10-30T00:58:47.408Z,5.38
2022-10-30T01:03:50.679Z,4.85
2022-10-30T01:08:46.765Z,5.53
2022-10-30T01:11:14.185Z,5.55
2022-10-30T01:13:44.588Z,6.00
2022-10-30T01:16:36.242Z,7.07
2022-10-30T01:19:30.729Z,5.63
2022-10-30T01:22:26.425Z,6.28
2022-10-30T01:25:22.823Z,5.93
2022-10-30T01:28:46.733Z,7.28
2022-10-30T01:31:39.202Z,5.50
2022-10-30T01:34:20.853Z,5.32
2022-10-30T01:36:58.397Z,5.90
2022-10-30T01:39:28.217Z,5.97
2022-10-30T01:41:55.694Z,6.05
2022-10-30T01:44:30.145Z,7.38
2022-10-30T01:47:16.589Z,6.47
2022-10-30T01:50:14.758Z,5.70
2022-10-30T01:53:00.580Z,7.40
2022-10-30T01:56:01.790Z,6.78
2022-10-30T01:58:39.863Z,6.07
2022-10-30T02:01:11.749Z,6.10
2022-10-30T02:03:39.575Z,6.25
2022-10-30T02:06:08.040Z,6.63
2022-10-30T02:08:35.183Z,6.55
2022-10-30T02:11:02.682Z,6.07
2022-10-30T02:13:38.048Z,6.60
2022-10-30T02:16:06.053Z,6.40
2022-10-30T02:18:33.235Z,5.90
2022-10-30T02:21:01.571Z,7.30
2022-10-30T02:23:28.653Z,7.05
2022-10-30T02:25:55.700Z,7.43
2022-10-30T02:28:22.494Z,7.38
2022-10-30T02:30:49.607Z,6.75
2022-10-30T02:35:45.232Z,6.32
2022-10-30T02:38:12.369Z,7.05
2022-10-30T02:40:39.525Z,7.35
2022-10-30T02:43:08.000Z,7.57
2022-10-30T02:45:35.233Z,7.10
2022-10-30T02:48:03.145Z,8.05
2022-10-30T02:50:30.870Z,7.43
2022-10-30T02:52:59.960Z,7.97
2022-10-30T02:55:27.958Z,6.47
2022-10-30T02:57:55.135Z,6.90
2022-10-30T03:00:22.508Z,6.38
2022-10-30T03:02:55.598Z,6.28
2022-10-30T03:05:23.359Z,5.88
2022-10-30T03:07:51.548Z,6.50
2022-10-30T03:10:18.799Z,6.30
2022-10-30T03:12:45.868Z,6.68
2022-10-30T03:15:12.795Z,6.95
2022-10-30T03:20:12.854Z,7.63
2022-10-30T03:22:39.936Z,6.45
2022-10-30T03:25:07.138Z,6.65
2022-10-30T03:27:34.357Z,5.25
2022-10-30T03:30:01.520Z,5.90
2022-10-30T03:32:29.464Z,5.93
2022-10-30T03:34:56.557Z,6.93
2022-10-30T03:37:23.637Z,7.05
2022-10-30T03:39:50.497Z,6.78
2022-10-30T03:42:21.224Z,6.63
2022-10-30T03:44:50.088Z,6.68
2022-10-30T03:47:17.510Z,6.53
2022-10-30T03:49:46.208Z,6.72
2022-10-30T03:52:17.660Z,7.97
2022-10-30T03:54:44.683Z,7.95
2022-10-30T03:57:14.369Z,8.68
2022-10-30T03:59:58.702Z,8.35
2022-10-30T04:02:48.852Z,8.60
2022-10-30T04:05:21.510Z,7.93
2022-10-30T04:07:55.300Z,6.85
2022-10-30T04:10:23.891Z,6.72
2022-10-30T04:12:59.854Z,5.00
2022-10-30T04:15:27.103Z,5.63
2022-10-30T04:17:54.224Z,5.55
2022-10-30T04:20:23.194Z,7.03
2022-10-30T04:22:57.620Z,7.00
2022-10-30T04:25:26.219Z,7.07
2022-10-30T04:27:53.739Z,7.07
2022-10-30T04:30:22.549Z,5.82
2022-10-30T04:32:54.694Z,5.68
2022-10-30T04:35:25.703Z,6.25
2022-10-30T04:38:13.164Z,7.60
2022-10-30T04:40:43.700Z,7.05
2022-10-30T04:43:13.276Z,7.70
2022-10-30T04:45:42.187Z,8.75
2022-10-30T04:48:13.570Z,9.15
2022-10-30T04:50:43.677Z,8.55
2022-10-30T04:53:19.045Z,11.00
2022-10-30T04:55:54.444Z,11.25
2022-10-30T04:58:22.024Z,10.23
2022-10-30T05:01:02.001Z,10.65
2022-10-30T05:03:30.453Z,10.68
2022-10-30T05:06:04.519Z,11.60
2022-10-30T05:08:32.495Z,10.18
2022-10-30T05:11:05.683Z,9.30
2022-10-30T05:13:32.836Z,7.43
2022-10-30T05:16:00.096Z,8.55
2022-10-30T05:18:27.560Z,6.72
2022-10-30T05:20:55.136Z,7.00
2022-10-30T05:23:25.288Z,6.72
2022-10-30T05:25:54.745Z,6.35
2022-10-30T05:28:22.386Z,7.70
2022-10-30T05:30:57.679Z,8.35
2022-10-30T05:33:45.793Z,8.13
2022-10-30T05:36:13.869Z,8.35
2022-10-30T05:38:44.407Z,7.68
2022-10-30T05:41:21.023Z,9.27
2022-10-30T05:43:48.544Z,8.15
2022-10-30T05:46:16.131Z,8.65
2022-10-30T05:48:43.737Z,10.82
2022-10-30T05:51:11.219Z,9.07
2022-10-30T05:53:42.690Z,9.70
2022-10-30T05:56:10.245Z,12.20
2022-10-30T05:58:38.097Z,14.07
2022-10-30T06:01:07.413Z,14.48
2022-10-30T06:03:45.267Z,17.52
2022-10-30T06:06:15.622Z,17.05
2022-10-30T06:08:44.482Z,17.52
2022-10-30T06:11:33.157Z,18.42
2022-10-30T06:14:01.756Z,18.40
2022-10-30T06:16:43.861Z,16.52
2022-10-30T06:19:17.553Z,17.52
2022-10-30T06:21:51.747Z,15.13
2022-10-30T06:24:32.302Z,15.10
2022-10-30T06:27:19.548Z,13.80
2022-10-30T06:29:46.713Z,13.32
2022-10-30T06:32:14.045Z,8.73
2022-10-30T06:34:44.998Z,9.52
2022-10-30T06:37:14.191Z,11.77
2022-10-30T06:39:41.791Z,10.77
2022-10-30T06:42:27.249Z,10.98
2022-10-30T06:45:11.352Z,10.52
2022-10-30T06:47:40.538Z,10.35
2022-10-30T06:50:10.773Z,5.88
2022-10-30T06:52:38.690Z,5.50
2022-10-30T06:55:07.815Z,5.22
2022-10-30T06:57:57.657Z,5.45
2022-10-30T07:00:43.776Z,5.28
2022-10-30T07:03:40.340Z,6.22
2022-10-30T07:06:08.352Z,5.70
2022-10-30T07:08:35.725Z,4.70
2022-10-30T07:11:03.501Z,5.85
2022-10-30T07:13:49.125Z,5.30
2022-10-30T07:16:29.716Z,5.13
2022-10-30T07:18:59.357Z,5.57
2022-10-30T07:21:32.124Z,7.55
2022-10-30T07:24:01.589Z,10.23
2022-10-30T07:26:33.720Z,7.28
2022-10-30T07:29:07.409Z,7.75
2022-10-30T07:31:57.719Z,8.48
2022-10-30T07:34:48.968Z,7.75
2022-10-30T07:37:36.004Z,7.82
2022-10-30T07:40:12.751Z,7.95
2022-10-30T07:43:04.422Z,7.18
2022-10-30T07:46:01.496Z,6.93
2022-10-30T07:49:04.323Z,6.00
2022-10-30T07:51:53.058Z,6.50
2022-10-30T07:54:22.864Z,4.55
2022-10-30T07:56:50.796Z,4.70
2022-10-30T07:59:36.335Z,3.97
2022-10-30T08:02:33.282Z,4.28
2022-10-30T08:05:28.774Z,3.45
2022-10-30T08:08:11.259Z,3.45
2022-10-30T08:10:39.270Z,2.97
2022-10-30T08:13:06.679Z,3.08
2022-10-30T08:15:33.736Z,2.97
2022-10-30T08:18:02.119Z,4.10
2022-10-30T08:20:30.126Z,3.42
2022-10-30T08:22:58.842Z,3.67
2022-10-30T08:25:30.577Z,3.25
2022-10-30T08:28:06.385Z,2.97
2022-10-30T08:30:38.637Z,3.13
2022-10-30T08:33:13.886Z,3.10
2022-10-30T08:35:51.779Z,3.22
2022-10-30T08:38:22.504Z,3.15
2022-10-30T08:41:04.905Z,3.13
2022-10-30T08:43:36.380Z,3.67
2022-10-30T08:46:04.153Z,3.58
2022-10-30T08:48:31.368Z,3.50
2022-10-30T08:51:02.487Z,3.70
2022-10-30T08:53:35.589Z,3.05
2022-10-30T08:56:07.697Z,3.60
2022-10-30T08:59:05.888Z,2.90
2022-10-30T09:01:36.495Z,3.40
2022-10-30T09:04:16.165Z,2.72
2022-10-30T09:06:49.277Z,2.80
2022-10-30T09:09:35.547Z,2.67
2022-10-30T09:12:03.870Z,2.55
2022-10-30T09:14:37.758Z,2.53
2022-10-30T09:17:07.826Z,2.72
2022-10-30T09:19:36.896Z,2.47
2022-10-30T09:22:05.077Z,2.60
2022-10-30T09:24:34.303Z,2.67
2022-10-30T09:27:21.681Z,2.47
2022-10-30T09:29:50.470Z,2.20
2022-10-30T09:32:25.649Z,2.22
2022-10-30T09:35:03.727Z,2.45
2022-10-30T09:37:39.741Z,2.33
2022-10-30T09:40:37.233Z,2.38
2022-10-30T09:43:56.278Z,2.25
2022-10-30T09:46:38.597Z,2.58
2022-10-30T09:49:12.376Z,2.67
2022-10-30T09:51:43.358Z,2.72
2022-10-30T09:54:12.512Z,2.00
2022-10-30T09:57:01.144Z,2.53
2022-10-30T09:59:42.789Z,2.47
2022-10-30T10:02:29.510Z,2.50
2022-10-30T10:05:04.198Z,3.17
2022-10-30T10:08:14.909Z,1.75
2022-10-30T10:11:19.236Z,1.70
2022-10-30T10:13:58.962Z,1.73
2022-10-30T10:16:41.360Z,1.80
2022-10-30T10:19:31.561Z,2.35
2022-10-30T10:22:02.779Z,2.40
2022-10-30T10:24:40.242Z,1.95
2022-10-30T10:27:25.976Z,1.80
2022-10-30T10:30:20.449Z,2.00
2022-10-30T10:32:53.539Z,1.50
2022-10-30T10:35:51.976Z,2.38
2022-10-30T10:38:38.917Z,2.20
2022-10-30T10:41:41.858Z,2.40
2022-10-30T10:44:49.993Z,1.80
2022-10-30T10:47:35.625Z,1.75
2022-10-30T10:50:18.720Z,1.70
2022-10-30T10:53:12.027Z,2.83
2022-10-30T10:55:40.057Z,1.60
2022-10-30T10:58:30.985Z,1.73
2022-10-30T11:01:02.396Z,1.92
2022-10-30T11:03:53.048Z,2.30
2022-10-30T11:06:27.799Z,1.77
2022-10-30T11:09:20.341Z,1.95
2022-10-30T11:11:52.795Z,2.17
2022-10-30T11:14:21.680Z,1.80
2022-10-30T11:16:54.868Z,1.58
2022-10-30T11:19:23.061Z,1.88
2022-10-30T11:21:54.335Z,1.70
2022-10-30T11:24:35.502Z,1.50
2022-10-30T11:27:38.234Z,1.40
2022-10-30T11:30:06.863Z,1.45
2022-10-30T11:32:35.457Z,1.40
2022-10-30T11:35:08.850Z,1.40
2022-10-30T11:37:39.121Z,1.40
2022-10-30T11:40:14.099Z,1.50
2022-10-30T11:42:52.097Z,1.60
2022-10-30T11:45:25.089Z,1.30
2022-10-30T11:47:56.016Z,1.50
2022-10-30T11:50:29.721Z,1.63
2022-10-30T11:53:02.583Z,1.40
2022-10-30T11:55:40.010Z,1.75
2022-10-30T11:58:11.792Z,1.30
2022-10-30T12:00:44.913Z,1.90
2022-10-30T12:03:29.865Z,1.10
2022-10-30T12:06:20.456Z,1.33
2022-10-30T12:09:20.648Z,1.00
2022-10-30T12:11:49.500Z,0.98
2022-10-30T12:14:22.445Z,1.15
2022-10-30T12:16:55.787Z,1.23
2022-10-30T12:19:26.325Z,1.50
2022-10-30T12:24:43.054Z,1.38
2022-10-30T12:27:22.565Z,1.10
2022-10-30T12:30:09.976Z,1.05
2022-10-30T12:32:52.417Z,1.17
2022-10-30T12:35:36.751Z,0.88
2022-10-30T12:38:12.290Z,1.00
2022-10-30T12:40:47.018Z,1.20
2022-10-30T12:43:29.339Z,1.00
2022-10-30T12:46:15.178Z,1.02
2022-10-30T12:48:53.556Z,1.00
2022-10-30T12:51:39.394Z,1.13
2022-10-30T12:54:25.154Z,0.82
2022-10-30T12:57:05.792Z,1.35
2022-10-30T12:59:39.993Z,1.10
2022-10-30T13:02:21.738Z,1.30
2022-10-30T13:04:56.094Z,1.60
2022-10-30T13:07:45.486Z,1.27
2022-10-30T13:10:31.620Z,1.75
2022-10-30T13:13:38.669Z,1.80
2022-10-30T13:16:27.698Z,2.55
2022-10-30T13:19:00.793Z,2.00
2022-10-30T13:21:46.828Z,1.90
2022-10-30T13:24:37.436Z,1.60
2022-10-30T13:27:25.224Z,1.30
2022-10-30T13:30:04.575Z,2.13
2022-10-30T13:33:09.321Z,1.83
2022-10-30T13:35:58.944Z,2.05
2022-10-30T13:38:32.860Z,2.00
2022-10-30T13:41:23.508Z,1.67
2022-10-30T13:44:03.532Z,1.48
2022-10-30T13:46:50.661Z,2.25
2022-10-30T13:49:33.528Z,1.63
2022-10-30T13:52:27.682Z,1.65
2022-10-30T13:55:09.755Z,1.70
2022-10-30T13:57:41.449Z,1.55
2022-10-30T14:00:32.751Z,1.85
2022-10-30T14:03:36.118Z,1.83
2022-10-30T14:06:12.479Z,2.38
2022-10-30T14:08:51.441Z,2.17
2022-10-30T14:11:18.687Z,2.00
2022-10-30T14:13:55.552Z,1.80
2022-10-30T14:16:36.002Z,1.60
2022-10-30T14:19:11.023Z,1.70
2022-10-30T14:21:43.777Z,2.00
2022-10-30T14:24:30.369Z,2.38
2022-10-30T14:27:03.667Z,2.30
2022-10-30T14:29:38.196Z,3.10
2022-10-30T14:32:14.290Z,2.92
2022-10-30T14:34:46.237Z,3.95
2022-10-30T14:37:13.878Z,3.83
2022-10-30T14:39:43.042Z,3.15
2022-10-30T14:42:31.635Z,3.47
2022-10-30T14:45:01.152Z,3.95
2022-10-30T14:47:46.426Z,3.45
2022-10-30T14:50:32.333Z,7.72
2022-10-30T14:53:00.354Z,5.25
2022-10-30T14:55:55.636Z,5.97
2022-10-30T14:58:29.291Z,4.78
2022-10-30T15:01:28.058Z,6.40
2022-10-30T15:04:24.678Z,8.05
2022-10-30T15:07:14.077Z,7.93
2022-10-30T15:10:07.288Z,8.50
2022-10-30T15:12:51.625Z,6.22
2022-10-30T15:15:19.799Z,14.75
2022-10-30T15:17:50.943Z,12.85
2022-10-30T15:20:25.660Z,12.32
2022-10-30T15:23:19.260Z,8.73
2022-10-30T15:25:50.540Z,9.15
2022-10-30T15:31:20.553Z,10.23
2022-10-30T15:33:47.729Z,12.45
2022-10-30T15:36:40.595Z,10.70
2022-10-30T15:39:12.391Z,10.95
2022-10-30T15:41:55.422Z,16.30
2022-10-30T15:44:33.858Z,15.30
2022-10-30T15:47:03.614Z,19.35
2022-10-30T15:49:36.451Z,18.80
2022-10-30T15:52:13.589Z,19.73
2022-10-30T15:54:45.129Z,20.90
2022-10-30T15:57:56.894Z,24.00
2022-10-30T16:00:20.525Z,22.70
2022-10-30T16:02:51.666Z,50.08
2022-10-30T16:05:23.284Z,60.08
2022-10-30T16:07:50.694Z,52.17
2022-10-30T16:10:18.359Z,53.15
2022-10-30T16:12:45.698Z,50.88
2022-10-30T16:15:25.391Z,54.60
2022-10-30T16:18:23.974Z,53.78
2022-10-30T16:20:53.884Z,45.20
2022-10-30T16:23:21.938Z,40.63
2022-10-30T16:25:55.774Z,30.77
2022-10-30T16:28:35.234Z,31.50
2022-10-30T16:31:08.568Z,31.00
2022-10-30T16:33:37.424Z,30.65
2022-10-30T16:36:06.054Z,29.58
2022-10-30T16:38:38.348Z,31.80
2022-10-30T16:41:07.507Z,32.67
2022-10-30T16:43:35.619Z,27.63
2022-10-30T16:46:14.624Z,25.20
2022-10-30T16:48:57.042Z,26.60
2022-10-30T16:51:24.605Z,26.40
2022-10-30T16:53:53.142Z,29.02
2022-10-30T16:56:25.066Z,14.38
2022-10-30T16:59:21.550Z,10.15
2022-10-30T17:01:58.133Z,15.90
2022-10-30T17:04:25.863Z,17.50
2022-10-30T17:07:07.794Z,20.92
2022-10-30T17:09:37.899Z,21.83
2022-10-30T17:12:14.682Z,21.38
2022-10-30T17:14:50.472Z,31.48
2022-10-30T17:17:30.154Z,21.73
2022-10-30T17:20:30.000Z,16.90
2022-10-30T17:23:27.802Z,16.50
2022-10-30T17:25:55.637Z,41.65
2022-10-30T17:28:33.699Z,44.28
2022-10-30T17:31:21.086Z,43.88
2022-10-30T17:34:04.669Z,38.50
2022-10-30T17:36:31.746Z,28.95
2022-10-30T17:38:58.721Z,28.27
2022-10-30T17:41:25.942Z,23.60
2022-10-30T17:43:56.001Z,25.30
2022-10-30T17:46:23.933Z,22.60
2022-10-30T17:48:51.152Z,21.52
2022-10-30T17:51:19.132Z,24.20
2022-10-30T17:53:48.465Z,14.50
2022-10-30T17:56:31.593Z,16.70
2022-10-30T17:58:58.609Z,16.52
2022-10-30T18:01:27.269Z,19.65
2022-10-30T18:03:55.694Z,16.80
2022-10-30T18:06:28.814Z,16.65
2022-10-30T18:08:56.150Z,19.17
2022-10-30T18:11:25.010Z,24.92
2022-10-30T18:13:52.903Z,27.00
2022-10-30T18:16:20.225Z,26.80
2022-10-30T18:19:28.226Z,27.35
2022-10-30T18:22:27.002Z,24.42
2022-10-30T18:25:24.599Z,23.10
2022-10-30T18:27:52.177Z,21.77
2022-10-30T18:30:20.963Z,20.20
2022-10-30T18:32:48.650Z,19.75
2022-10-30T18:35:18.617Z,20.58
2022-10-30T18:37:45.824Z,11.50
2022-10-30T18:40:12.935Z,12.30
2022-10-30T18:42:40.082Z,14.50
2022-10-30T18:45:15.332Z,14.68
2022-10-30T18:50:31.111Z,19.60
2022-10-30T18:53:05.982Z,13.82
2022-10-30T18:55:38.750Z,14.00
2022-10-30T18:58:07.673Z,14.93
2022-10-30T19:00:58.101Z,10.30
2022-10-30T19:03:22.991Z,9.75
2022-10-30T19:05:51.664Z,10.95
2022-10-30T19:08:18.783Z,8.73
2022-10-30T19:10:47.995Z,8.23
2022-10-30T19:13:20.991Z,9.65
2022-10-30T19:15:55.960Z,11.00
2022-10-30T19:18:27.638Z,14.57
2022-10-30T19:21:14.681Z,12.93
2022-10-30T19:23:42.131Z,11.35
2022-10-30T19:26:09.207Z,13.95
2022-10-30T19:28:38.343Z,11.77
2022-10-30T19:31:05.506Z,10.07
2022-10-30T19:33:32.832Z,11.45
2022-10-30T19:36:02.468Z,10.85
2022-10-30T19:38:30.391Z,12.68
2022-10-30T19:40:59.341Z,11.23
2022-10-30T19:43:28.397Z,11.25
2022-10-30T19:45:58.048Z,10.93
2022-10-30T19:48:55.411Z,10.60
2022-10-30T19:51:13.345Z,11.43
2022-10-30T19:53:41.532Z,12.32
2022-10-30T19:56:11.537Z,16.02
2022-10-30T19:58:38.525Z,18.38
2022-10-30T20:01:07.876Z,18.35
2022-10-30T20:03:35.570Z,14.60
2022-10-30T20:06:02.792Z,12.90
2022-10-30T20:08:33.115Z,13.73
2022-10-30T20:11:01.530Z,13.18
2022-10-30T20:13:31.376Z,12.85
2022-10-30T20:16:05.629Z,12.68
2022-10-30T20:18:36.153Z,11.95
2022-10-30T20:21:10.621Z,13.00
2022-10-30T20:23:42.704Z,13.68
2022-10-30T20:26:30.264Z,14.77
2022-10-30T20:29:01.268Z,12.75
2022-10-30T20:31:29.137Z,12.30
2022-10-30T20:33:56.408Z,10.98
2022-10-30T20:36:24.144Z,11.82
2022-10-30T20:38:51.284Z,11.63
2022-10-30T20:41:24.287Z,11.27
2022-10-30T20:43:52.133Z,11.35
2022-10-30T20:46:19.846Z,11.30
2022-10-30T20:48:47.935Z,12.60
2022-10-30T20:51:15.053Z,12.20
2022-10-30T20:53:42.342Z,12.40
2022-10-30T20:56:09.481Z,14.43
2022-10-30T20:58:36.684Z,16.30
2022-10-30T21:01:07.444Z,17.08
2022-10-30T21:03:35.785Z,16.63
2022-10-30T21:06:03.201Z,17.42
2022-10-30T21:08:34.615Z,16.45
2022-10-30T21:11:13.924Z,15.57
2022-10-30T21:13:41.017Z,15.73
2022-10-30T21:16:21.468Z,15.90
2022-10-30T21:18:54.283Z,28.30
2022-10-30T21:21:26.079Z,25.58
2022-10-30T21:23:56.716Z,25.48
2022-10-30T21:26:24.829Z,24.33
2022-10-30T21:28:52.294Z,23.38
2022-10-30T21:31:19.513Z,16.02
2022-10-30T21:33:47.288Z,12.55
2022-10-30T21:36:20.187Z,16.05
2022-10-30T21:38:47.268Z,14.05
2022-10-30T21:41:17.399Z,14.02
2022-10-30T21:43:50.120Z,17.55
2022-10-30T21:46:17.550Z,27.55
2022-10-30T21:48:44.812Z,25.83
2022-10-30T21:51:15.083Z,25.67
2022-10-30T21:53:43.396Z,25.67
2022-10-30T21:56:14.042Z,24.00
2022-10-30T21:58:41.510Z,24.05
2022-10-30T22:01:17.960Z,20.25
2022-10-30T22:03:45.523Z,16.75
2022-10-30T22:06:14.623Z,12.27
2022-10-30T22:08:44.608Z,10.23
2022-10-30T22:11:12.064Z,8.95
2022-10-30T22:13:39.926Z,8.55
2022-10-30T22:16:10.943Z,4.75
2022-10-30T22:21:07.607Z,4.95
2022-10-30T22:23:36.546Z,5.05
2022-10-30T22:26:06.730Z,6.28
2022-10-30T22:28:35.169Z,5.97
2022-10-30T22:31:16.006Z,5.63
2022-10-30T22:33:44.162Z,6.73
2022-10-30T22:36:20.035Z,6.38
2022-10-30T22:38:48.727Z,6.25
2022-10-30T22:41:16.950Z,6.65
2022-10-30T22:43:45.464Z,6.22
2022-10-30T22:46:14.171Z,6.10
2022-10-30T22:48:41.717Z,6.85
2022-10-30T22:51:13.551Z,8.20
2022-10-30T22:53:46.419Z,8.25
2022-10-30T22:56:15.103Z,8.13
2022-10-30T22:58:42.270Z,9.20
2022-10-30T23:01:12.279Z,9.68
2022-10-30T23:03:39.552Z,10.80
2022-10-30T23:06:07.593Z,10.98
2022-10-30T23:08:35.011Z,10.30
2022-10-30T23:11:02.846Z,9.85
2022-10-30T23:13:31.043Z,7.55
2022-10-30T23:16:07.221Z,7.43
2022-10-30T23:18:35.369Z,8.35
2022-10-30T23:21:08.923Z,8.23
2022-10-30T23:23:37.254Z,8.32
2022-10-30T23:26:10.967Z,8.55
2022-10-30T23:28:41.354Z,8.20
2022-10-30T23:31:21.449Z,8.85
2022-10-30T23:33:51.258Z,9.63
2022-10-30T23:36:18.309Z,9.10
2022-10-30T23:38:45.397Z,9.32
2022-10-30T23:41:12.401Z,10.05
2022-10-30T23:43:39.340Z,8.80
2022-10-30T23:46:06.592Z,8.65
2022-10-30T23:48:33.579Z,8.10
2022-10-30T23:51:11.085Z,7.65
2022-10-30T23:53:39.888Z,7.15
2022-10-30T23:56:07.165Z,8.13
2022-10-30T23:58:34.563Z,8.95
